Dagmar Aaen — DIXX — position and weather

sailwx.info

Track history (hours):
 
Tides and Currents Weather Stations Pressure Air Temp Water Temp Dewpoint Dewpoint Depression Visibility Wind Speed Wind Dir Waves Ship Positions

Dagmar Aaen

Last reported at 2017-Jul-25 11:03 UTC. Time now 2017-Jul-27 00:36 UTC.
Position N 55°39' E 010°18'.

Length 24 m; beam 4.8 m; draft 2.5 m.

Type: Sailing vessel. MMSI: 211249810.

Date/timePositionNaut miles runAvg speedWind from/ knotsBaromVisibWave heightAir tempDewpointWater temp
2017-Jul-25 11:03N 55°39' E 010°18'1 5.5
2017-Jul-25 10:47N 55°39' E 010°20'2 6.2
2017-Jul-25 10:29N 55°38' E 010°23'3 7.0
2017-Jul-25 10:00N 55°37' E 010°29'3 5.7
2017-Jul-25 09:25N 55°36' E 010°35'0 0.8
2017-Jul-25 08:59N 55°36' E 010°34'0 0.5
2017-Jul-25 08:29N 55°36' E 010°34'1 2.8
2017-Jul-25 08:00N 55°37' E 010°35'2 4.8
2017-Jul-25 07:30N 55°37' E 010°39'3 6.6
2017-Jul-25 07:00N 55°34' E 010°42'4 7.0
2017-Jul-25 06:29N 55°31' E 010°44'3 5.8
2017-Jul-25 05:53N 55°28' E 010°43'2 5.2
2017-Jul-25 05:30N 55°27' E 010°40'0 0.0
2017-Jul-25 04:58N 55°27' E 010°40'0 0.0
2017-Jul-25 04:25N 55°27' E 010°40'0 0.0
2017-Jul-25 03:58N 55°27' E 010°40'0 0.0
2017-Jul-25 03:30N 55°27' E 010°40'0 0.0
2017-Jul-25 02:59N 55°27' E 010°40'0 0.0
2017-Jul-25 02:29N 55°27' E 010°40'0 0.0
2017-Jul-25 02:00N 55°27' E 010°40'0 0.0
2017-Jul-25 01:29N 55°27' E 010°40'0 0.0
2017-Jul-25 00:59N 55°27' E 010°40'0 0.0
2017-Jul-25 00:30N 55°27' E 010°40'0 0.0
2017-Jul-24 23:59N 55°27' E 010°40'0 0.0
2017-Jul-24 23:29N 55°27' E 010°40'0 0.0
2017-Jul-24 23:00N 55°27' E 010°40'0 0.0
2017-Jul-24 22:31N 55°27' E 010°40'0 0.0
2017-Jul-24 22:00N 55°27' E 010°40'0 0.0
2017-Jul-24 21:28N 55°27' E 010°40'0 0.0
2017-Jul-24 21:00N 55°27' E 010°40'0 0.0
2017-Jul-24 20:29N 55°27' E 010°40'0 0.0
2017-Jul-24 19:55N 55°27' E 010°40'0 0.0
2017-Jul-24 19:30N 55°27' E 010°40'0 0.0
2017-Jul-24 19:00N 55°27' E 010°40'0 0.0
2017-Jul-24 18:28N 55°27' E 010°40'0 0.0
2017-Jul-24 17:57N 55°27' E 010°40'0 0.0
2017-Jul-24 17:30N 55°27' E 010°40'0 0.0
2017-Jul-24 17:00N 55°27' E 010°40'0 0.0
2017-Jul-24 16:28N 55°27' E 010°40'0 0.0
2017-Jul-24 16:00N 55°27' E 010°40'1 0.4
2017-Jul-24 12:59N 55°27' E 010°42'2 3.2
2017-Jul-24 12:30N 55°26' E 010°45'2 4.2
2017-Jul-24 12:00N 55°26' E 010°48'2 4.6
2017-Jul-24 11:29N 55°24' E 010°52'2 2.0
2017-Jul-24 10:25N 55°23' E 010°55'4 4.8
2017-Jul-24 09:30N 55°21' E 011°01'5 5.0
2017-Jul-24 08:32N 55°18' E 010°54'0 4.6
2017-Jul-24 08:27N 55°18' E 010°54'3 4.9
2017-Jul-24 07:56N 55°17' E 010°49'3 0.1
2017-Jul-23 13:03N 55°14' E 010°50'0 1.7
2017-Jul-23 13:00N 55°15' E 010°50'7 4.0
2017-Jul-23 11:09N 55°07' E 010°49'1 4.6
2017-Jul-23 10:58N 55°06' E 010°49'2 4.7
2017-Jul-23 10:30N 55°04' E 010°47'2 4.2
2017-Jul-23 10:00N 55°02' E 010°46'2 4.8
2017-Jul-23 09:31N 55°00' E 010°44'2 4.7
2017-Jul-23 09:00N 54°58' E 010°42'3 6.8
2017-Jul-23 08:30N 54°55' E 010°40'3 6.2
2017-Jul-23 08:00N 54°53' E 010°36'3 5.7
2017-Jul-23 07:30N 54°52' E 010°31'1 0.1
2017-Jul-22 18:39N 54°51' E 010°31'0 0.0
2017-Jul-22 18:15N 54°51' E 010°31'0 0.0
2017-Jul-22 16:09N 54°51' E 010°31'0 0.0
2017-Jul-22 15:48N 54°51' E 010°31'0 0.0
2017-Jul-22 15:30N 54°51' E 010°31'0 0.0
2017-Jul-22 15:00N 54°51' E 010°31'0 0.0
2017-Jul-22 14:00N 54°51' E 010°31'0 0.0
2017-Jul-22 13:30N 54°51' E 010°31'0 0.0
2017-Jul-22 13:00N 54°51' E 010°31'0 0.0
2017-Jul-22 12:30N 54°51' E 010°31'1 1.1
2017-Jul-22 11:50N 54°52' E 010°31'2 4.5
2017-Jul-22 11:29N 54°53' E 010°34'3 5.3
2017-Jul-22 10:59N 54°55' E 010°31'3 5.4
2017-Jul-22 10:30N 54°57' E 010°27'4 1.8
2017-Jul-22 08:33N 54°53' E 010°25'0 0.0
2017-Jul-22 08:03N 54°53' E 010°25'0 0.0
2017-Jul-22 07:59N 54°53' E 010°25'0 0.0
2017-Jul-22 07:29N 54°53' E 010°25'0 0.0
2017-Jul-22 06:55N 54°53' E 010°25'0 0.0
2017-Jul-22 06:06N 54°53' E 010°25'0 0.1
2017-Jul-22 06:00N 54°53' E 010°25'0 0.0
2017-Jul-22 04:09N 54°53' E 010°25'0 0.0
2017-Jul-22 04:00N 54°53' E 010°25'0 0.0
2017-Jul-22 02:38N 54°53' E 010°25'0 0.0
2017-Jul-22 02:05N 54°53' E 010°25'0 0.0
2017-Jul-22 01:51N 54°53' E 010°25'0 0.0
2017-Jul-22 01:21N 54°53' E 010°25'0 0.0
2017-Jul-22 00:21N 54°53' E 010°25'0 0.0
2017-Jul-21 21:33N 54°53' E 010°25'0 0.0
2017-Jul-21 21:27N 54°53' E 010°25'0 0.0
2017-Jul-21 20:48N 54°53' E 010°25'0 0.0
2017-Jul-21 20:24N 54°53' E 010°25'0 0.0
2017-Jul-21 19:55N 54°53' E 010°25'0 0.0
2017-Jul-21 19:24N 54°53' E 010°25'0 0.0
2017-Jul-21 18:56N 54°53' E 010°25'0 0.0
2017-Jul-21 17:32N 54°53' E 010°25'0 0.0
2017-Jul-21 17:30N 54°53' E 010°25'0 0.0
2017-Jul-21 16:35N 54°53' E 010°25'1 4.2
2017-Jul-21 16:16N 54°55' E 010°25'2 6.7
2017-Jul-21 15:59N 54°56' E 010°22'4 6.7
2017-Jul-21 15:24N 54°58' E 010°17'  
Track history (hours):
 
Tides and Currents Weather Stations Pressure Air Temp Water Temp Dewpoint Dewpoint Depression Visibility Wind Speed Wind Dir Waves Ship Positions

Dagmar Aaen

Last reported at 2017-Jul-25 11:03 UTC. Time now 2017-Jul-27 00:36 UTC.
Position N 55°39' E 010°18'.

Length 24 m; beam 4.8 m; draft 2.5 m.

Type: Sailing vessel. MMSI: 211249810.

Date/timePositionNaut miles runAvg speedWind from/ knotsBaromVisibWave heightAir tempDewpointWater temp
2017-Jul-25 11:03N 55°39' E 010°18'1 5.5
2017-Jul-25 10:47N 55°39' E 010°20'2 6.2
2017-Jul-25 10:29N 55°38' E 010°23'3 7.0
2017-Jul-25 10:00N 55°37' E 010°29'3 5.7
2017-Jul-25 09:25N 55°36' E 010°35'0 0.8
2017-Jul-25 08:59N 55°36' E 010°34'0 0.5
2017-Jul-25 08:29N 55°36' E 010°34'1 2.8
2017-Jul-25 08:00N 55°37' E 010°35'2 4.8
2017-Jul-25 07:30N 55°37' E 010°39'3 6.6
2017-Jul-25 07:00N 55°34' E 010°42'4 7.0
2017-Jul-25 06:29N 55°31' E 010°44'3 5.8
2017-Jul-25 05:53N 55°28' E 010°43'2 5.2
2017-Jul-25 05:30N 55°27' E 010°40'0 0.0
2017-Jul-25 04:58N 55°27' E 010°40'0 0.0
2017-Jul-25 04:25N 55°27' E 010°40'0 0.0
2017-Jul-25 03:58N 55°27' E 010°40'0 0.0
2017-Jul-25 03:30N 55°27' E 010°40'0 0.0
2017-Jul-25 02:59N 55°27' E 010°40'0 0.0
2017-Jul-25 02:29N 55°27' E 010°40'0 0.0
2017-Jul-25 02:00N 55°27' E 010°40'0 0.0
2017-Jul-25 01:29N 55°27' E 010°40'0 0.0
2017-Jul-25 00:59N 55°27' E 010°40'0 0.0
2017-Jul-25 00:30N 55°27' E 010°40'0 0.0
2017-Jul-24 23:59N 55°27' E 010°40'0 0.0
2017-Jul-24 23:29N 55°27' E 010°40'0 0.0
2017-Jul-24 23:00N 55°27' E 010°40'0 0.0
2017-Jul-24 22:31N 55°27' E 010°40'0 0.0
2017-Jul-24 22:00N 55°27' E 010°40'0 0.0
2017-Jul-24 21:28N 55°27' E 010°40'0 0.0
2017-Jul-24 21:00N 55°27' E 010°40'0 0.0
2017-Jul-24 20:29N 55°27' E 010°40'0 0.0
2017-Jul-24 19:55N 55°27' E 010°40'0 0.0
2017-Jul-24 19:30N 55°27' E 010°40'0 0.0
2017-Jul-24 19:00N 55°27' E 010°40'0 0.0
2017-Jul-24 18:28N 55°27' E 010°40'0 0.0
2017-Jul-24 17:57N 55°27' E 010°40'0 0.0
2017-Jul-24 17:30N 55°27' E 010°40'0 0.0
2017-Jul-24 17:00N 55°27' E 010°40'0 0.0
2017-Jul-24 16:28N 55°27' E 010°40'0 0.0
2017-Jul-24 16:00N 55°27' E 010°40'1 0.4
2017-Jul-24 12:59N 55°27' E 010°42'2 3.2
2017-Jul-24 12:30N 55°26' E 010°45'2 4.2
2017-Jul-24 12:00N 55°26' E 010°48'2 4.6
2017-Jul-24 11:29N 55°24' E 010°52'2 2.0
2017-Jul-24 10:25N 55°23' E 010°55'4 4.8
2017-Jul-24 09:30N 55°21' E 011°01'5 5.0
2017-Jul-24 08:32N 55°18' E 010°54'0 4.6
2017-Jul-24 08:27N 55°18' E 010°54'3 4.9
2017-Jul-24 07:56N 55°17' E 010°49'3 0.1
2017-Jul-23 13:03N 55°14' E 010°50'0 1.7
2017-Jul-23 13:00N 55°15' E 010°50'7 4.0
2017-Jul-23 11:09N 55°07' E 010°49'1 4.6
2017-Jul-23 10:58N 55°06' E 010°49'2 4.7
2017-Jul-23 10:30N 55°04' E 010°47'2 4.2
2017-Jul-23 10:00N 55°02' E 010°46'2 4.8
2017-Jul-23 09:31N 55°00' E 010°44'2 4.7
2017-Jul-23 09:00N 54°58' E 010°42'3 6.8
2017-Jul-23 08:30N 54°55' E 010°40'3 6.2
2017-Jul-23 08:00N 54°53' E 010°36'3 5.7
2017-Jul-23 07:30N 54°52' E 010°31'1 0.1
2017-Jul-22 18:39N 54°51' E 010°31'0 0.0
2017-Jul-22 18:15N 54°51' E 010°31'0 0.0
2017-Jul-22 16:09N 54°51' E 010°31'0 0.0
2017-Jul-22 15:48N 54°51' E 010°31'0 0.0
2017-Jul-22 15:30N 54°51' E 010°31'0 0.0
2017-Jul-22 15:00N 54°51' E 010°31'0 0.0
2017-Jul-22 14:00N 54°51' E 010°31'0 0.0
2017-Jul-22 13:30N 54°51' E 010°31'0 0.0
2017-Jul-22 13:00N 54°51' E 010°31'0 0.0
2017-Jul-22 12:30N 54°51' E 010°31'1 1.1
2017-Jul-22 11:50N 54°52' E 010°31'2 4.5
2017-Jul-22 11:29N 54°53' E 010°34'3 5.3
2017-Jul-22 10:59N 54°55' E 010°31'3 5.4
2017-Jul-22 10:30N 54°57' E 010°27'4 1.8
2017-Jul-22 08:33N 54°53' E 010°25'0 0.0
2017-Jul-22 08:03N 54°53' E 010°25'0 0.0
2017-Jul-22 07:59N 54°53' E 010°25'0 0.0
2017-Jul-22 07:29N 54°53' E 010°25'0 0.0
2017-Jul-22 06:55N 54°53' E 010°25'0 0.0
2017-Jul-22 06:06N 54°53' E 010°25'0 0.1
2017-Jul-22 06:00N 54°53' E 010°25'0 0.0
2017-Jul-22 04:09N 54°53' E 010°25'0 0.0
2017-Jul-22 04:00N 54°53' E 010°25'0 0.0
2017-Jul-22 02:38N 54°53' E 010°25'0 0.0
2017-Jul-22 02:05N 54°53' E 010°25'0 0.0
2017-Jul-22 01:51N 54°53' E 010°25'0 0.0
2017-Jul-22 01:21N 54°53' E 010°25'0 0.0
2017-Jul-22 00:21N 54°53' E 010°25'0 0.0
2017-Jul-21 21:33N 54°53' E 010°25'0 0.0
2017-Jul-21 21:27N 54°53' E 010°25'0 0.0
2017-Jul-21 20:48N 54°53' E 010°25'0 0.0
2017-Jul-21 20:24N 54°53' E 010°25'0 0.0
2017-Jul-21 19:55N 54°53' E 010°25'0 0.0
2017-Jul-21 19:24N 54°53' E 010°25'0 0.0
2017-Jul-21 18:56N 54°53' E 010°25'0 0.0
2017-Jul-21 17:32N 54°53' E 010°25'0 0.0
2017-Jul-21 17:30N 54°53' E 010°25'0 0.0
2017-Jul-21 16:35N 54°53' E 010°25'1 4.2
2017-Jul-21 16:16N 54°55' E 010°25'2 6.7
2017-Jul-21 15:59N 54°56' E 010°22'4 6.7
2017-Jul-21 15:24N 54°58' E 010°17'  

Dump ship's entire track history